Time;durP1;ratioP1;P1;durP2;ratioP2;P2;SDS_P1;SDS_P2;PMS_P1;PMS_P2;Temp;Humidity;BMP_temperature;BMP_pressure;BME280_temperature;BME280_humidity;BME280_pressure;Samples;Min_cycle;Max_cycle;Signal;HPM_P1;HPM_P2
2022/11/01 00:00:37;;;;;;;73.95;43.25;;;;;;;;;;5136708;27;20027;-75
2022/11/01 00:03:25;;;;;;;79.65;44.88;;;;;;;;;;5123369;27;20031;-76
2022/11/01 00:06:11;;;;;;;76.68;46.58;;;;;;;;;;5137003;27;20341;-74
2022/11/01 00:08:56;;;;;;;75.18;41.38;;;;;;;;;;5123581;27;20465;-75
2022/11/01 00:11:42;;;;;;;57.88;34.60;;;;;;;;;;5137353;27;20026;-76
2022/11/01 00:14:27;;;;;;;48.28;29.67;;;;;;;;;;5136294;27;20029;-75
2022/11/01 00:17:13;;;;;;;45.20;28.33;;;;;;;;;;5136490;27;20027;-76
2022/11/01 00:19:59;;;;;;;52.88;29.85;;;;;;;;;;5137073;27;20011;-76
2022/11/01 00:22:44;;;;;;;46.05;26.20;;;;;;;;;;5122821;27;20038;-73
2022/11/01 00:25:30;;;;;;;46.03;25.98;;;;;;;;;;5123025;27;20019;-76
2022/11/01 00:28:16;;;;;;;37.17;22.38;;;;;;;;;;5136950;27;20027;-74
2022/11/01 00:31:01;;;;;;;37.97;22.33;;;;;;;;;;5136664;27;20011;-77
2022/11/01 00:33:53;;;;;;;38.20;20.40;;;;;;;;;;5136594;27;20106;-75
2022/11/01 00:36:42;;;;;;;31.23;20.83;;;;;;;;;;5121479;27;20018;-77
2022/11/01 00:39:27;;;;;;;35.10;19.90;;;;;;;;;;5136281;27;20019;-77
2022/11/01 00:42:13;;;;;;;31.27;19.50;;;;;;;;;;5122795;27;20476;-75
2022/11/01 00:44:59;;;;;;;34.90;19.17;;;;;;;;;;5137492;27;20038;-76
2022/11/01 00:47:47;;;;;;;27.77;17.23;;;;;;;;;;5136367;27;20014;-76
2022/11/01 00:50:33;;;;;;;27.17;18.23;;;;;;;;;;5122388;27;20046;-75
2022/11/01 00:53:21;;;;;;;28.55;17.10;;;;;;;;;;5137028;27;20062;-77
2022/11/01 00:56:07;;;;;;;28.25;16.10;;;;;;;;;;5135885;27;20023;-76
2022/11/01 00:58:52;;;;;;;27.85;16.48;;;;;;;;;;5121983;27;20446;-75
2022/11/01 01:01:38;;;;;;;22.30;15.27;;;;;;;;;;5136205;27;20102;-76
2022/11/01 01:04:23;;;;;;;27.20;14.70;;;;;;;;;;5136151;27;20077;-76
2022/11/01 01:07:09;;;;;;;28.67;15.77;;;;;;;;;;5136465;27;20102;-76
2022/11/01 01:09:55;;;;;;;23.75;14.93;;;;;;;;;;5136199;27;20019;-76
2022/11/01 01:12:40;;;;;;;22.80;14.50;;;;;;;;;;5136957;27;20026;-76
2022/11/01 01:15:26;;;;;;;19.52;13.48;;;;;;;;;;5120646;27;20061;-75
2022/11/01 01:18:12;;;;;;;27.20;14.90;;;;;;;;;;5136208;27;20023;-76
2022/11/01 01:20:59;;;;;;;27.40;14.43;;;;;;;;;;5136741;27;20007;-75
2022/11/01 01:23:45;;;;;;;20.48;13.77;;;;;;;;;;5120492;27;20012;-76
2022/11/01 01:26:31;;;;;;;23.02;13.85;;;;;;;;;;5136084;27;20022;-76
2022/11/01 01:29:16;;;;;;;21.02;13.65;;;;;;;;;;5135775;27;20440;-75
2022/11/01 01:32:02;;;;;;;25.55;13.95;;;;;;;;;;5135027;27;20349;-77
2022/11/01 01:34:48;;;;;;;24.92;14.70;;;;;;;;;;5121883;27;20023;-76
2022/11/01 01:37:34;;;;;;;19.15;14.05;;;;;;;;;;5134802;27;20019;-75
2022/11/01 01:40:19;;;;;;;20.88;13.77;;;;;;;;;;5135046;27;20015;-76
2022/11/01 01:43:08;;;;;;;21.08;14.07;;;;;;;;;;5135368;27;20022;-76
2022/11/01 01:45:53;;;;;;;22.85;14.38;;;;;;;;;;5133726;27;20067;-75
2022/11/01 01:48:40;;;;;;;19.13;12.98;;;;;;;;;;5134507;27;20019;-76
2022/11/01 01:51:26;;;;;;;22.95;13.93;;;;;;;;;;5121102;27;20021;-76
2022/11/01 01:54:12;;;;;;;19.75;12.60;;;;;;;;;;5137384;27;20167;-75
2022/11/01 01:56:58;;;;;;;19.73;13.02;;;;;;;;;;5136355;27;20394;-77
2022/11/01 01:59:44;;;;;;;19.00;12.98;;;;;;;;;;5134985;27;20021;-76
2022/11/01 02:02:30;;;;;;;21.70;13.10;;;;;;;;;;5134598;27;20084;-76
2022/11/01 02:05:31;;;;;;;20.33;12.35;;;;;;;;;;5134765;27;20031;-76
2022/11/01 02:08:26;;;;;;;21.13;13.48;;;;;;;;;;5134424;27;20034;-76
2022/11/01 02:11:13;;;;;;;22.55;13.23;;;;;;;;;;5134518;27;20019;-75
2022/11/01 02:13:59;;;;;;;26.45;14.50;;;;;;;;;;5119528;27;20023;-75
2022/11/01 02:17:23;;;;;;;23.13;14.43;;;;;;;;;;5134877;27;20023;-75
2022/11/01 02:20:08;;;;;;;26.00;15.23;;;;;;;;;;5052130;28;20340;-75
2022/11/01 02:22:57;;;;;;;24.98;15.25;;;;;;;;;;5037861;28;20083;-75
2022/11/01 02:25:51;;;;;;;25.75;15.77;;;;;;;;;;5127071;27;20023;-75
2022/11/01 02:28:42;;;;;;;25.98;15.57;;;;;;;;;;5121446;27;20096;-75
2022/11/01 02:31:31;;;;;;;26.10;15.52;;;;;;;;;;5133887;27;20019;-75
2022/11/01 02:34:42;;;;;;;23.17;15.50;;;;;;;;;;5134424;27;20096;-74
2022/11/01 02:37:31;;;;;;;26.27;16.60;;;;;;;;;;5135421;28;20019;-75
2022/11/01 02:40:24;;;;;;;27.40;16.05;;;;;;;;;;5120883;28;20027;-77
2022/11/01 02:43:13;;;;;;;28.00;15.70;;;;;;;;;;5119809;28;20360;-76
2022/11/01 02:46:59;;;;;;;25.90;16.45;;;;;;;;;;5134472;28;20039;-76
2022/11/01 02:49:06;;;;;;;25.10;16.20;;;;;;;;;;5134265;28;20098;-77
2022/11/01 02:51:52;;;;;;;28.40;17.08;;;;;;;;;;5134102;28;20018;-76
2022/11/01 02:54:39;;;;;;;27.63;16.85;;;;;;;;;;5134223;28;20398;-76
2022/11/01 02:57:27;;;;;;;30.83;16.52;;;;;;;;;;5135944;27;20089;-76
2022/11/01 03:00:17;;;;;;;30.67;16.75;;;;;;;;;;5138387;27;20019;-76
2022/11/01 03:03:06;;;;;;;24.90;16.33;;;;;;;;;;5138085;27;20020;-76
2022/11/01 03:05:57;;;;;;;24.17;16.20;;;;;;;;;;5138846;27;20023;-75
2022/11/01 03:08:42;;;;;;;30.33;16.60;;;;;;;;;;5123604;27;20015;-75
2022/11/01 03:11:34;;;;;;;31.35;17.67;;;;;;;;;;5137623;27;20126;-76
2022/11/01 03:14:25;;;;;;;27.58;17.60;;;;;;;;;;5123512;27;20023;-74
2022/11/01 03:17:19;;;;;;;28.40;17.27;;;;;;;;;;5137842;27;20110;-75
2022/11/01 03:20:07;;;;;;;26.40;17.88;;;;;;;;;;5148668;27;20023;-73
2022/11/01 03:22:57;;;;;;;26.40;17.92;;;;;;;;;;5156055;27;20026;-74
2022/11/01 03:25:46;;;;;;;27.30;18.40;;;;;;;;;;5144621;27;20023;-75
2022/11/01 03:28:35;;;;;;;31.80;18.67;;;;;;;;;;5137586;27;20482;-76
2022/11/01 03:31:26;;;;;;;39.22;19.20;;;;;;;;;;5123959;27;20059;-75
2022/11/01 03:34:14;;;;;;;32.63;19.17;;;;;;;;;;5123421;27;20084;-75
2022/11/01 03:37:01;;;;;;;31.65;19.05;;;;;;;;;;5122707;27;20371;-76
2022/11/01 03:39:50;;;;;;;34.95;18.27;;;;;;;;;;5137683;27;20038;-77
2022/11/01 03:42:36;;;;;;;34.78;18.17;;;;;;;;;;5137109;27;20015;-76
2022/11/01 03:45:24;;;;;;;33.22;19.60;;;;;;;;;;5137851;27;20043;-75
2022/11/01 03:48:09;;;;;;;29.65;18.95;;;;;;;;;;5148581;27;20057;-73
2022/11/01 03:50:55;;;;;;;27.30;18.33;;;;;;;;;;5156436;27;20034;-77
2022/11/01 03:53:40;;;;;;;31.35;18.08;;;;;;;;;;5140490;27;20452;-76
2022/11/01 03:56:26;;;;;;;34.40;18.48;;;;;;;;;;5139743;27;20014;-77
2022/11/01 03:59:11;;;;;;;29.70;17.60;;;;;;;;;;5140223;27;20449;-76
2022/11/01 04:01:57;;;;;;;31.52;18.95;;;;;;;;;;5138591;27;20133;-77
2022/11/01 04:04:43;;;;;;;30.70;18.15;;;;;;;;;;5136563;27;20023;-77
2022/11/01 04:07:28;;;;;;;31.08;18.20;;;;;;;;;;5137659;27;20019;-75
2022/11/01 04:10:14;;;;;;;28.73;19.80;;;;;;;;;;5123031;27;20019;-75
2022/11/01 04:13:00;;;;;;;34.45;19.52;;;;;;;;;;5137755;27;20468;-76
2022/11/01 04:20:31;;;;;;;26.60;18.88;;;;;;;;;;5138284;27;20029;-75
2022/11/01 04:21:58;;;;;;;28.67;18.35;;;;;;;;;;5137185;27;20046;-74
2022/11/01 04:24:43;;;;;;;33.97;19.60;;;;;;;;;;5137187;27;20019;-76
2022/11/01 04:27:29;;;;;;;34.25;19.88;;;;;;;;;;5137282;27;20046;-76
2022/11/01 04:30:14;;;;;;;27.75;19.00;;;;;;;;;;5123393;27;20023;-76
2022/11/01 04:33:00;;;;;;;27.92;18.50;;;;;;;;;;5137340;27;20394;-76
2022/11/01 04:35:46;;;;;;;26.45;17.58;;;;;;;;;;5136911;27;20027;-76
2022/11/01 04:38:31;;;;;;;25.45;17.98;;;;;;;;;;5137349;27;20027;-76
2022/11/01 04:41:21;;;;;;;26.50;16.45;;;;;;;;;;5136548;27;20114;-76
2022/11/01 04:44:07;;;;;;;25.60;15.68;;;;;;;;;;5121341;27;20023;-76
2022/11/01 04:46:57;;;;;;;27.80;15.82;;;;;;;;;;5136573;27;20411;-77
2022/11/01 04:49:43;;;;;;;23.90;17.00;;;;;;;;;;5135895;27;20027;-75
2022/11/01 04:52:28;;;;;;;28.38;16.40;;;;;;;;;;5136623;27;20016;-76
2022/11/01 04:55:14;;;;;;;28.60;17.02;;;;;;;;;;5136615;27;20023;-76
2022/11/01 04:58:00;;;;;;;27.75;17.02;;;;;;;;;;5122406;27;20019;-75
2022/11/01 05:00:46;;;;;;;30.55;18.77;;;;;;;;;;5134899;27;20061;-76
2022/11/01 05:03:31;;;;;;;31.27;17.98;;;;;;;;;;5135748;27;20020;-76
2022/11/01 05:06:20;;;;;;;33.35;18.25;;;;;;;;;;5121294;27;20054;-76
2022/11/01 05:09:06;;;;;;;26.42;17.38;;;;;;;;;;5120852;27;20022;-75
2022/11/01 05:11:51;;;;;;;32.30;17.20;;;;;;;;;;5122023;27;20095;-75
2022/11/01 05:14:37;;;;;;;29.42;17.88;;;;;;;;;;5135410;27;20015;-75
2022/11/01 05:17:22;;;;;;;30.45;19.25;;;;;;;;;;5137154;27;20015;-75
2022/11/01 05:20:09;;;;;;;32.55;18.13;;;;;;;;;;5135060;27;20418;-75
2022/11/01 05:22:58;;;;;;;29.42;18.58;;;;;;;;;;5121432;27;20023;-76
2022/11/01 05:25:44;;;;;;;35.28;20.00;;;;;;;;;;5135925;27;20394;-75
2022/11/01 05:28:30;;;;;;;34.80;18.88;;;;;;;;;;5135418;27;20019;-75
2022/11/01 05:31:15;;;;;;;36.17;21.00;;;;;;;;;;5136167;27;20019;-76
2022/11/01 05:34:01;;;;;;;40.25;20.63;;;;;;;;;;5135404;27;20088;-75
2022/11/01 05:36:46;;;;;;;42.10;21.25;;;;;;;;;;5135670;27;20015;-74
2022/11/01 05:39:32;;;;;;;45.33;22.67;;;;;;;;;;5135351;27;20015;-77
2022/11/01 05:42:18;;;;;;;42.08;22.08;;;;;;;;;;5121754;27;20083;-75
2022/11/01 05:45:04;;;;;;;35.50;21.23;;;;;;;;;;5135725;27;20337;-75
2022/11/01 05:47:49;;;;;;;39.70;20.67;;;;;;;;;;5134434;27;20043;-75
2022/11/01 05:50:35;;;;;;;35.97;19.45;;;;;;;;;;5135529;27;20023;-75
2022/11/01 05:53:20;;;;;;;37.25;20.60;;;;;;;;;;5135952;27;20015;-75
2022/11/01 05:56:06;;;;;;;32.00;20.77;;;;;;;;;;5121367;27;20027;-76
2022/11/01 05:58:52;;;;;;;38.78;22.10;;;;;;;;;;5135814;27;20034;-76
2022/11/01 06:01:37;;;;;;;33.58;21.27;;;;;;;;;;5135576;27;20054;-75
2022/11/01 06:04:23;;;;;;;34.25;21.63;;;;;;;;;;5121314;27;20078;-75
2022/11/01 06:07:08;;;;;;;39.28;22.48;;;;;;;;;;5134402;27;20084;-76
2022/11/01 06:09:54;;;;;;;40.83;22.25;;;;;;;;;;5135746;27;20030;-76
2022/11/01 06:12:40;;;;;;;33.85;20.48;;;;;;;;;;5134541;27;20012;-74
2022/11/01 06:15:26;;;;;;;38.47;21.27;;;;;;;;;;5136561;27;20034;-75
2022/11/01 06:18:11;;;;;;;38.15;21.02;;;;;;;;;;5134348;27;20011;-77
2022/11/01 06:20:58;;;;;;;32.92;21.63;;;;;;;;;;5133896;27;20019;-75
2022/11/01 06:23:49;;;;;;;39.08;21.38;;;;;;;;;;5135956;27;20050;-75
2022/11/01 06:26:34;;;;;;;34.63;20.42;;;;;;;;;;5120101;27;20015;-76
2022/11/01 06:29:20;;;;;;;36.72;21.40;;;;;;;;;;5123114;27;20042;-75
2022/11/01 06:32:05;;;;;;;34.13;21.35;;;;;;;;;;5122807;27;20029;-76
2022/11/01 06:34:51;;;;;;;35.28;20.58;;;;;;;;;;5136130;27;20090;-76
2022/11/01 06:37:37;;;;;;;30.05;19.48;;;;;;;;;;5120831;28;20117;-77
2022/11/01 06:40:23;;;;;;;33.83;20.50;;;;;;;;;;5120076;28;20023;-76
2022/11/01 06:43:08;;;;;;;31.00;18.75;;;;;;;;;;5135354;28;20400;-77
2022/11/01 06:45:57;;;;;;;30.02;19.60;;;;;;;;;;5134205;28;20035;-76
2022/11/01 06:48:43;;;;;;;35.03;19.83;;;;;;;;;;5133980;28;20430;-76
2022/11/01 06:51:28;;;;;;;33.38;20.15;;;;;;;;;;5134924;28;20020;-76
2022/11/01 06:54:14;;;;;;;34.03;19.10;;;;;;;;;;5121509;28;20023;-76
2022/11/01 06:56:59;;;;;;;30.58;19.30;;;;;;;;;;5135654;28;20437;-77
2022/11/01 06:59:45;;;;;;;36.30;19.67;;;;;;;;;;5134362;28;20031;-76
2022/11/01 07:02:31;;;;;;;28.77;19.30;;;;;;;;;;5136687;28;20370;-76
2022/11/01 07:05:16;;;;;;;30.48;19.42;;;;;;;;;;5120004;28;20054;-77
2022/11/01 07:08:03;;;;;;;31.90;20.70;;;;;;;;;;5120278;28;20071;-77
2022/11/01 07:10:49;;;;;;;33.92;21.65;;;;;;;;;;5119230;28;20019;-76
2022/11/01 07:13:36;;;;;;;39.15;21.05;;;;;;;;;;5134093;28;20345;-76
2022/11/01 07:16:22;;;;;;;31.15;19.15;;;;;;;;;;5133944;28;20030;-75
2022/11/01 07:19:07;;;;;;;29.10;19.15;;;;;;;;;;5135859;28;20096;-76
2022/11/01 07:21:53;;;;;;;28.55;18.95;;;;;;;;;;5133769;28;20023;-76
2022/11/01 07:24:39;;;;;;;28.20;17.90;;;;;;;;;;5135587;28;20097;-75
2022/11/01 07:27:24;;;;;;;34.78;17.67;;;;;;;;;;5120337;28;20012;-76
2022/11/01 07:30:10;;;;;;;29.52;17.40;;;;;;;;;;5134580;28;20074;-74
2022/11/01 07:32:57;;;;;;;34.42;19.23;;;;;;;;;;5120177;28;20380;-76
2022/11/01 07:35:43;;;;;;;33.85;18.98;;;;;;;;;;5133816;28;20102;-77
2022/11/01 07:38:28;;;;;;;35.22;20.05;;;;;;;;;;5133964;28;20011;-75
2022/11/01 07:41:14;;;;;;;36.88;19.02;;;;;;;;;;5134554;28;20111;-77
2022/11/01 07:44:00;;;;;;;32.13;19.00;;;;;;;;;;5134722;27;20051;-75
2022/11/01 07:46:45;;;;;;;35.92;20.00;;;;;;;;;;5138601;27;20088;-75
2022/11/01 07:49:31;;;;;;;32.38;20.38;;;;;;;;;;5140393;27;20051;-75
2022/11/01 07:52:16;;;;;;;32.30;19.63;;;;;;;;;;5137499;27;20104;-74
2022/11/01 07:55:02;;;;;;;31.75;19.30;;;;;;;;;;5139633;27;20023;-74
2022/11/01 07:57:47;;;;;;;35.75;20.83;;;;;;;;;;5138535;27;20031;-75
2022/11/01 08:00:33;;;;;;;43.33;23.50;;;;;;;;;;5124302;27;20019;-75
2022/11/01 08:03:19;;;;;;;43.22;20.15;;;;;;;;;;5139832;27;20456;-74
2022/11/01 08:06:05;;;;;;;31.95;18.17;;;;;;;;;;5137926;27;20041;-75
2022/11/01 08:08:50;;;;;;;31.13;18.08;;;;;;;;;;5124578;27;20023;-75
2022/11/01 08:11:36;;;;;;;31.25;18.83;;;;;;;;;;5137179;27;20026;-75
2022/11/01 08:14:21;;;;;;;31.75;18.95;;;;;;;;;;5137060;27;20314;-75
2022/11/01 08:17:07;;;;;;;37.75;20.30;;;;;;;;;;5138285;27;20031;-76
2022/11/01 08:19:53;;;;;;;32.45;17.65;;;;;;;;;;5137742;27;20030;-78
2022/11/01 08:22:39;;;;;;;32.80;18.75;;;;;;;;;;5136150;27;20027;-76
2022/11/01 08:25:25;;;;;;;33.92;21.25;;;;;;;;;;5139552;27;20061;-77
2022/11/01 08:28:12;;;;;;;28.63;18.73;;;;;;;;;;5126202;27;20022;-77
2022/11/01 08:30:57;;;;;;;31.83;20.48;;;;;;;;;;5132252;27;20083;-78
2022/11/01 08:33:44;;;;;;;38.08;21.73;;;;;;;;;;5147681;27;20034;-78
2022/11/01 08:36:29;;;;;;;34.88;20.35;;;;;;;;;;5125327;27;20448;-76
2022/11/01 08:39:15;;;;;;;30.83;19.83;;;;;;;;;;5137562;27;20118;-77
2022/11/01 08:42:01;;;;;;;32.47;20.00;;;;;;;;;;5137913;27;20023;-77
2022/11/01 08:44:46;;;;;;;34.03;19.63;;;;;;;;;;5137967;27;20050;-78
2022/11/01 08:47:32;;;;;;;37.85;22.10;;;;;;;;;;5136723;27;20428;-76
2022/11/01 08:50:17;;;;;;;30.67;20.27;;;;;;;;;;5135738;27;20015;-77
2022/11/01 08:53:04;;;;;;;38.78;20.85;;;;;;;;;;5135626;27;20043;-76
2022/11/01 08:55:53;;;;;;;35.47;20.85;;;;;;;;;;5136998;27;20098;-77
2022/11/01 08:58:39;;;;;;;41.72;24.92;;;;;;;;;;5137530;27;20015;-76
2022/11/01 09:01:25;;;;;;;43.88;22.77;;;;;;;;;;5136548;27;20457;-77
2022/11/01 09:04:11;;;;;;;32.83;21.33;;;;;;;;;;5136874;27;20023;-77
2022/11/01 09:06:56;;;;;;;35.10;21.63;;;;;;;;;;5136629;27;20027;-78
2022/11/01 09:09:42;;;;;;;30.33;20.00;;;;;;;;;;5123610;27;20091;-76
2022/11/01 09:12:28;;;;;;;38.40;22.35;;;;;;;;;;5135641;27;20019;-77
2022/11/01 09:15:13;;;;;;;34.60;20.88;;;;;;;;;;5135872;27;20106;-76
2022/11/01 09:18:03;;;;;;;42.58;22.45;;;;;;;;;;5139164;27;20038;-75
2022/11/01 09:20:52;;;;;;;32.90;21.95;;;;;;;;;;5135382;27;20337;-76
2022/11/01 09:23:38;;;;;;;40.13;23.02;;;;;;;;;;5137284;27;20015;-77
2022/11/01 09:26:26;;;;;;;29.50;18.05;;;;;;;;;;5136454;27;20015;-75
2022/11/01 09:29:12;;;;;;;37.08;19.13;;;;;;;;;;5121179;27;20011;-77
2022/11/01 09:31:57;;;;;;;28.90;18.50;;;;;;;;;;5137595;27;20023;-76
2022/11/01 09:34:44;;;;;;;46.78;28.33;;;;;;;;;;5136401;27;20019;-76
2022/11/01 09:37:29;;;;;;;35.22;19.90;;;;;;;;;;5135832;27;20019;-79
2022/11/01 09:40:15;;;;;;;32.05;19.30;;;;;;;;;;5135181;27;20015;-78
2022/11/01 09:43:02;;;;;;;41.40;25.10;;;;;;;;;;5121929;27;20018;-77
2022/11/01 09:45:50;;;;;;;30.92;17.48;;;;;;;;;;5133330;27;20041;-76
2022/11/01 09:48:36;;;;;;;24.75;15.82;;;;;;;;;;5126670;27;20033;-77
2022/11/01 09:51:23;;;;;;;21.95;14.75;;;;;;;;;;5121177;27;20410;-77
2022/11/01 09:54:09;;;;;;;26.10;15.90;;;;;;;;;;5106858;27;20025;-77
2022/11/01 09:57:10;;;;;;;23.13;15.23;;;;;;;;;;5136306;27;20019;-78
2022/11/01 10:00:16;;;;;;;24.67;14.93;;;;;;;;;;5155448;27;20030;-76
2022/11/01 10:03:04;;;;;;;25.83;13.55;;;;;;;;;;5141245;27;20041;-77
2022/11/01 10:05:51;;;;;;;18.13;11.30;;;;;;;;;;5155916;27;20022;-76
2022/11/01 10:08:42;;;;;;;20.30;10.98;;;;;;;;;;5155179;27;20448;-78
2022/11/01 10:11:42;;;;;;;21.10;10.57;;;;;;;;;;5156134;27;20023;-77
2022/11/01 10:14:40;;;;;;;15.77;10.13;;;;;;;;;;5157716;27;20026;-77
2022/11/01 10:17:25;;;;;;;17.63;9.90;;;;;;;;;;5155639;27;20019;-76
2022/11/01 10:20:12;;;;;;;20.67;10.77;;;;;;;;;;5155442;27;20048;-76
2022/11/01 10:22:59;;;;;;;14.32;9.45;;;;;;;;;;5155800;27;20022;-76
2022/11/01 10:25:47;;;;;;;16.25;9.63;;;;;;;;;;5155076;27;20019;-77
2022/11/01 10:28:40;;;;;;;24.35;12.25;;;;;;;;;;5141048;27;20033;-76
2022/11/01 10:31:26;;;;;;;14.23;9.82;;;;;;;;;;5155134;27;20118;-76
2022/11/01 10:34:24;;;;;;;15.10;10.60;;;;;;;;;;5155092;27;20051;-76
2022/11/01 10:37:17;;;;;;;12.52;8.93;;;;;;;;;;5141133;27;20023;-77
2022/11/01 10:40:09;;;;;;;16.30;8.43;;;;;;;;;;5154459;27;20023;-76
2022/11/01 10:42:55;;;;;;;14.95;8.70;;;;;;;;;;5156110;27;20401;-75
2022/11/01 10:45:42;;;;;;;12.63;8.32;;;;;;;;;;5132197;27;20101;-76
2022/11/01 10:48:32;;;;;;;13.52;7.93;;;;;;;;;;5113950;28;20098;-77
2022/11/01 10:51:19;;;;;;;13.10;8.88;;;;;;;;;;5113654;28;20051;-78
2022/11/01 10:54:09;;;;;;;12.13;7.95;;;;;;;;;;5114318;28;20107;-77
2022/11/01 10:56:58;;;;;;;18.85;11.77;;;;;;;;;;5113740;28;20089;-75
2022/11/01 10:59:45;;;;;;;16.95;12.02;;;;;;;;;;5114251;28;20023;-76
2022/11/01 11:02:33;;;;;;;29.75;16.30;;;;;;;;;;5113682;28;20038;-75
2022/11/01 11:05:20;;;;;;;13.95;8.48;;;;;;;;;;5113003;28;20122;-76
2022/11/01 11:08:12;;;;;;;11.00;7.65;;;;;;;;;;5113889;28;20375;-77
2022/11/01 11:11:01;;;;;;;16.55;9.38;;;;;;;;;;5099779;28;20023;-77
2022/11/01 11:13:48;;;;;;;11.77;8.00;;;;;;;;;;5113682;28;20018;-77
2022/11/01 11:16:39;;;;;;;13.20;8.80;;;;;;;;;;5099512;28;20453;-75
2022/11/01 11:19:27;;;;;;;11.73;7.72;;;;;;;;;;5117380;28;20031;-77
2022/11/01 11:22:13;;;;;;;13.48;8.00;;;;;;;;;;5116744;28;20110;-77
2022/11/01 11:25:00;;;;;;;12.45;7.60;;;;;;;;;;5118152;28;20016;-76
2022/11/01 11:27:47;;;;;;;13.13;7.70;;;;;;;;;;5102379;28;20020;-76
2022/11/01 11:30:34;;;;;;;11.43;8.40;;;;;;;;;;5117440;28;20106;-76
2022/11/01 11:33:20;;;;;;;10.38;7.88;;;;;;;;;;5116678;28;20357;-77
2022/11/01 11:36:06;;;;;;;13.40;8.07;;;;;;;;;;5116491;28;20054;-78
2022/11/01 11:38:53;;;;;;;14.15;8.07;;;;;;;;;;5117064;28;20019;-78
2022/11/01 11:41:40;;;;;;;12.23;7.97;;;;;;;;;;5116998;28;20053;-75
2022/11/01 11:44:40;;;;;;;12.35;7.00;;;;;;;;;;5119241;27;20089;-76
2022/11/01 11:47:27;;;;;;;11.15;6.85;;;;;;;;;;5159047;27;20452;-77
2022/11/01 11:50:18;;;;;;;11.70;6.93;;;;;;;;;;5158959;27;20022;-76
2022/11/01 11:53:21;;;;;;;15.73;8.10;;;;;;;;;;5158163;27;20014;-77
2022/11/01 11:56:08;;;;;;;14.18;9.82;;;;;;;;;;5143923;27;20015;-77
2022/11/01 11:58:54;;;;;;;19.63;8.48;;;;;;;;;;5158529;27;20025;-77
2022/11/01 12:01:40;;;;;;;16.00;8.73;;;;;;;;;;5158712;27;20019;-77
2022/11/01 12:04:31;;;;;;;15.48;8.35;;;;;;;;;;5143360;27;20444;-78
2022/11/01 12:07:21;;;;;;;12.05;8.27;;;;;;;;;;5166685;27;20023;-76
2022/11/01 12:10:26;;;;;;;13.60;8.55;;;;;;;;;;5166424;27;20014;-77
2022/11/01 12:13:33;;;;;;;16.17;8.85;;;;;;;;;;5143521;27;20033;-77
2022/11/01 12:16:21;;;;;;;16.10;8.38;;;;;;;;;;5157777;27;20091;-77
2022/11/01 12:19:20;;;;;;;19.27;8.40;;;;;;;;;;5157982;27;20018;-76
2022/11/01 12:22:08;;;;;;;16.45;8.02;;;;;;;;;;5157650;27;20022;-77
2022/11/01 12:24:56;;;;;;;12.88;8.38;;;;;;;;;;5157986;27;20018;-77
2022/11/01 12:27:45;;;;;;;16.58;8.40;;;;;;;;;;5157681;27;20361;-77
2022/11/01 12:30:32;;;;;;;22.52;11.30;;;;;;;;;;5156799;27;20089;-77
2022/11/01 12:33:21;;;;;;;16.15;8.63;;;;;;;;;;5161159;27;20015;-77
2022/11/01 12:36:08;;;;;;;15.98;8.45;;;;;;;;;;5165417;27;20048;-76
2022/11/01 12:38:56;;;;;;;16.95;10.27;;;;;;;;;;5150911;27;20056;-78
2022/11/01 12:41:43;;;;;;;36.08;19.08;;;;;;;;;;5159528;27;20048;-77
2022/11/01 12:44:40;;;;;;;17.63;11.48;;;;;;;;;;5161019;27;20010;-76
2022/11/01 12:47:41;;;;;;;15.45;8.43;;;;;;;;;;5126988;27;20109;-78
2022/11/01 12:50:49;;;;;;;23.15;9.25;;;;;;;;;;5124716;27;20459;-77
2022/11/01 12:53:36;;;;;;;15.63;8.65;;;;;;;;;;5122968;27;20027;-77
2022/11/01 12:56:22;;;;;;;22.58;13.18;;;;;;;;;;5137680;27;20365;-77
2022/11/01 12:59:09;;;;;;;12.38;7.88;;;;;;;;;;5138021;27;20460;-77
2022/11/01 13:02:07;;;;;;;16.98;10.45;;;;;;;;;;5136979;27;20487;-76
2022/11/01 13:04:53;;;;;;;15.77;10.38;;;;;;;;;;5122680;27;20362;-78
2022/11/01 13:07:45;;;;;;;16.13;9.00;;;;;;;;;;5136676;27;20449;-78
2022/11/01 13:10:35;;;;;;;19.00;8.82;;;;;;;;;;5137051;27;20022;-76
2022/11/01 13:13:43;;;;;;;14.68;10.00;;;;;;;;;;5137219;27;20409;-77
2022/11/01 13:16:33;;;;;;;20.98;9.50;;;;;;;;;;5137527;27;20020;-77
2022/11/01 13:19:26;;;;;;;19.13;11.18;;;;;;;;;;5122473;27;20429;-76
2022/11/01 13:22:18;;;;;;;16.38;10.15;;;;;;;;;;5156349;27;20030;-76
2022/11/01 13:25:18;;;;;;;18.55;10.77;;;;;;;;;;5127215;27;20109;-76
2022/11/01 13:28:14;;;;;;;17.95;11.35;;;;;;;;;;5156289;27;20018;-77
2022/11/01 13:31:03;;;;;;;17.25;10.27;;;;;;;;;;5158209;27;20030;-74
2022/11/01 13:33:57;;;;;;;36.53;24.27;;;;;;;;;;5155999;27;20022;-74
2022/11/01 13:37:03;;;;;;;15.75;11.45;;;;;;;;;;5140844;27;20101;-74
2022/11/01 13:39:51;;;;;;;15.98;9.20;;;;;;;;;;5156145;27;20448;-74
2022/11/01 13:42:39;;;;;;;17.45;9.88;;;;;;;;;;5140214;27;20075;-74
2022/11/01 13:45:24;;;;;;;14.68;9.57;;;;;;;;;;5141424;27;20121;-74
2022/11/01 13:48:28;;;;;;;12.88;8.65;;;;;;;;;;5141168;27;20019;-75
2022/11/01 13:51:32;;;;;;;11.70;8.20;;;;;;;;;;5155912;27;20027;-74
2022/11/01 13:54:32;;;;;;;11.15;7.95;;;;;;;;;;5140965;27;20023;-74
2022/11/01 13:57:21;;;;;;;83.03;50.47;;;;;;;;;;5141904;27;20018;-79
2022/11/01 14:00:27;;;;;;;29.15;18.08;;;;;;;;;;5142722;27;20443;-78
2022/11/01 14:03:18;;;;;;;17.02;12.23;;;;;;;;;;5157772;27;20023;-78
2022/11/01 14:06:10;;;;;;;13.10;8.93;;;;;;;;;;5158164;27;20026;-80
2022/11/01 14:09:17;;;;;;;18.60;8.63;;;;;;;;;;5142226;27;20095;-79
2022/11/01 14:12:03;;;;;;;15.85;9.85;;;;;;;;;;5157376;27;20084;-79
2022/11/01 14:14:49;;;;;;;14.05;9.50;;;;;;;;;;5156054;27;20102;-79
2022/11/01 14:17:34;;;;;;;18.23;10.25;;;;;;;;;;5141100;27;20026;-75
2022/11/01 14:20:32;;;;;;;18.58;9.20;;;;;;;;;;5155161;27;20027;-75
2022/11/01 14:23:27;;;;;;;13.85;8.23;;;;;;;;;;5141100;27;20015;-75
2022/11/01 14:26:18;;;;;;;13.68;8.32;;;;;;;;;;5155381;27;20015;-76
2022/11/01 14:29:08;;;;;;;14.07;9.13;;;;;;;;;;5155570;27;20019;-77
2022/11/01 14:31:54;;;;;;;21.30;9.20;;;;;;;;;;5154954;27;20050;-75
2022/11/01 14:34:41;;;;;;;14.88;9.25;;;;;;;;;;5155490;27;20029;-75
2022/11/01 14:37:29;;;;;;;16.95;9.60;;;;;;;;;;5140142;27;20033;-75
2022/11/01 14:40:41;;;;;;;18.55;9.15;;;;;;;;;;5155530;27;20124;-75
2022/11/01 14:43:26;;;;;;;17.27;10.10;;;;;;;;;;5155918;27;20091;-75
2022/11/01 14:46:16;;;;;;;22.88;10.88;;;;;;;;;;5154935;27;20057;-74
2022/11/01 14:49:06;;;;;;;24.17;10.77;;;;;;;;;;5156052;27;20050;-76
2022/11/01 14:51:55;;;;;;;25.80;11.18;;;;;;;;;;5154971;27;20018;-76
2022/11/01 14:54:45;;;;;;;25.38;11.75;;;;;;;;;;5144534;27;20050;-75
2022/11/01 14:57:31;;;;;;;29.40;12.27;;;;;;;;;;5158890;27;20030;-74
2022/11/01 15:00:20;;;;;;;25.77;13.35;;;;;;;;;;5160767;27;20157;-75
2022/11/01 15:03:08;;;;;;;25.13;12.40;;;;;;;;;;5158099;27;20051;-74
2022/11/01 15:05:53;;;;;;;32.63;12.40;;;;;;;;;;5159133;27;20022;-75
2022/11/01 15:08:42;;;;;;;28.10;12.52;;;;;;;;;;5160054;27;20077;-75
2022/11/01 15:11:29;;;;;;;27.20;13.07;;;;;;;;;;5159807;27;20011;-76
2022/11/01 15:14:19;;;;;;;23.67;12.48;;;;;;;;;;5159067;27;20026;-75
2022/11/01 15:17:05;;;;;;;27.83;14.15;;;;;;;;;;5143012;27;20132;-74
2022/11/01 15:19:52;;;;;;;35.40;16.27;;;;;;;;;;5142738;27;20114;-75
2022/11/01 15:22:38;;;;;;;52.05;20.15;;;;;;;;;;5158587;27;20027;-75
2022/11/01 15:25:28;;;;;;;61.88;21.75;;;;;;;;;;5142991;27;20022;-75
2022/11/01 15:28:20;;;;;;;50.47;21.38;;;;;;;;;;5142829;27;20023;-75
2022/11/01 15:31:06;;;;;;;50.33;20.77;;;;;;;;;;5143137;27;20355;-74
2022/11/01 15:33:58;;;;;;;55.88;21.58;;;;;;;;;;5158994;27;20215;-76
2022/11/01 15:36:44;;;;;;;51.05;22.17;;;;;;;;;;5158943;27;20109;-76
2022/11/01 15:39:34;;;;;;;48.75;21.85;;;;;;;;;;5159962;27;20031;-77
2022/11/01 15:42:22;;;;;;;57.95;22.55;;;;;;;;;;5158768;27;20018;-75
2022/11/01 15:45:28;;;;;;;55.30;22.40;;;;;;;;;;5143645;27;20050;-75
2022/11/01 15:48:17;;;;;;;53.78;24.27;;;;;;;;;;5143279;27;20023;-75
2022/11/01 15:51:07;;;;;;;69.90;25.73;;;;;;;;;;5158746;27;20018;-77
2022/11/01 15:53:56;;;;;;;60.40;24.63;;;;;;;;;;5142959;27;20054;-75
2022/11/01 15:56:44;;;;;;;46.38;22.90;;;;;;;;;;5143765;27;20090;-74
2022/11/01 15:59:36;;;;;;;55.30;22.90;;;;;;;;;;5142836;27;20317;-74
2022/11/01 16:02:26;;;;;;;54.85;22.95;;;;;;;;;;5161620;27;20065;-75
2022/11/01 16:05:14;;;;;;;60.67;24.98;;;;;;;;;;5156870;27;20105;-75
2022/11/01 16:08:01;;;;;;;71.68;25.48;;;;;;;;;;5141999;27;20011;-75
2022/11/01 16:10:46;;;;;;;61.65;25.80;;;;;;;;;;5157503;27;20023;-75
2022/11/01 16:13:32;;;;;;;64.03;26.27;;;;;;;;;;5157874;27;20477;-75
2022/11/01 16:16:17;;;;;;;49.17;24.42;;;;;;;;;;5157931;27;20063;-75
2022/11/01 16:19:23;;;;;;;59.58;25.60;;;;;;;;;;5158196;27;20030;-74
2022/11/01 16:22:30;;;;;;;62.67;26.70;;;;;;;;;;5158929;27;20022;-74
2022/11/01 16:25:20;;;;;;;61.28;26.52;;;;;;;;;;5142632;27;20368;-76